Terminal Aerodrome Forecast
Issued by NWS Pueblo, CO

Home | Current Version | Previous Version | Text Only | Print | Product List | Glossary On
Versions: 1 2 3 4 5 6 7 8 9 10 11 12 13 14 15 16 17 18 19
000
FTUS45 KPUB 261120
TAFPUB
TAF
KPUB 261120Z 2612/2712 VRB06KT P6SM SKC
     FM261800 16010KT P6SM SKC
     FM262100 15020G30KT P6SM FEW250
     FM270100 15010KT P6SM FEW200
     FM270800 04008KT P6SM FEW150=

USA.gov is the U.S. government's official web portal to all federal, state and local government web resources and services.